sensor_id;sensor_type;location;lat;lon;timestamp;temperature;humidity
2577;DHT22;1298;51.252;6.802;2022-08-18T00:01:03;19.60;99.90
2577;DHT22;1298;51.252;6.802;2022-08-18T00:03:51;19.60;99.90
2577;DHT22;1298;51.252;6.802;2022-08-18T00:06:36;19.70;99.90
2577;DHT22;1298;51.252;6.802;2022-08-18T00:09:21;19.80;99.90
2577;DHT22;1298;51.252;6.802;2022-08-18T00:12:12;19.70;99.90
2577;DHT22;1298;51.252;6.802;2022-08-18T00:14:58;19.60;99.90
2577;DHT22;1298;51.252;6.802;2022-08-18T00:17:46;19.60;99.90
2577;DHT22;1298;51.252;6.802;2022-08-18T00:20:33;19.60;99.90
2577;DHT22;1298;51.252;6.802;2022-08-18T00:23:19;19.60;99.90
2577;DHT22;1298;51.252;6.802;2022-08-18T00:26:04;19.70;99.90
2577;DHT22;1298;51.252;6.802;2022-08-18T00:28:49;19.60;99.90
2577;DHT22;1298;51.252;6.802;2022-08-18T00:31:35;19.60;99.90
2577;DHT22;1298;51.252;6.802;2022-08-18T00:34:20;19.50;99.90
2577;DHT22;1298;51.252;6.802;2022-08-18T00:37:07;19.50;99.90
2577;DHT22;1298;51.252;6.802;2022-08-18T00:39:53;19.50;99.90
2577;DHT22;1298;51.252;6.802;2022-08-18T00:42:41;19.40;99.90
2577;DHT22;1298;51.252;6.802;2022-08-18T00:45:31;19.40;99.90
2577;DHT22;1298;51.252;6.802;2022-08-18T00:48:17;19.50;99.90
2577;DHT22;1298;51.252;6.802;2022-08-18T00:51:07;19.40;99.90
2577;DHT22;1298;51.252;6.802;2022-08-18T00:54:00;19.30;99.90
2577;DHT22;1298;51.252;6.802;2022-08-18T00:56:48;19.20;99.90
2577;DHT22;1298;51.252;6.802;2022-08-18T00:59:38;19.30;99.90
2577;DHT22;1298;51.252;6.802;2022-08-18T01:02:30;19.30;99.90
2577;DHT22;1298;51.252;6.802;2022-08-18T01:05:20;19.30;99.90
2577;DHT22;1298;51.252;6.802;2022-08-18T01:08:08;19.30;99.90
2577;DHT22;1298;51.252;6.802;2022-08-18T01:11:00;19.20;99.90
2577;DHT22;1298;51.252;6.802;2022-08-18T01:13:46;19.20;99.90
2577;DHT22;1298;51.252;6.802;2022-08-18T01:16:32;19.10;99.90
2577;DHT22;1298;51.252;6.802;2022-08-18T01:19:36;19.10;99.90
2577;DHT22;1298;51.252;6.802;2022-08-18T01:22:49;19.10;99.90
2577;DHT22;1298;51.252;6.802;2022-08-18T01:25:36;19.00;99.90
2577;DHT22;1298;51.252;6.802;2022-08-18T01:28:17;19.10;99.90
2577;DHT22;1298;51.252;6.802;2022-08-18T01:31:05;19.10;99.90
2577;DHT22;1298;51.252;6.802;2022-08-18T01:33:50;19.00;99.90
2577;DHT22;1298;51.252;6.802;2022-08-18T01:36:38;19.00;99.90
2577;DHT22;1298;51.252;6.802;2022-08-18T01:39:26;19.00;99.90
2577;DHT22;1298;51.252;6.802;2022-08-18T01:42:13;19.00;99.90
2577;DHT22;1298;51.252;6.802;2022-08-18T01:45:00;19.00;99.90
2577;DHT22;1298;51.252;6.802;2022-08-18T01:47:46;19.00;99.90
2577;DHT22;1298;51.252;6.802;2022-08-18T01:50:34;19.00;99.90
2577;DHT22;1298;51.252;6.802;2022-08-18T01:53:19;19.00;99.90
2577;DHT22;1298;51.252;6.802;2022-08-18T01:56:07;19.10;99.90
2577;DHT22;1298;51.252;6.802;2022-08-18T01:58:53;19.10;99.90
2577;DHT22;1298;51.252;6.802;2022-08-18T02:01:40;19.10;99.90
2577;DHT22;1298;51.252;6.802;2022-08-18T02:04:28;19.00;99.90
2577;DHT22;1298;51.252;6.802;2022-08-18T02:07:16;19.10;99.90
2577;DHT22;1298;51.252;6.802;2022-08-18T02:10:02;19.20;99.90
2577;DHT22;1298;51.252;6.802;2022-08-18T02:12:51;19.10;99.90
2577;DHT22;1298;51.252;6.802;2022-08-18T02:15:37;19.10;99.90
2577;DHT22;1298;51.252;6.802;2022-08-18T02:18:25;19.10;99.90
2577;DHT22;1298;51.252;6.802;2022-08-18T02:21:14;19.10;99.90
2577;DHT22;1298;51.252;6.802;2022-08-18T02:24:00;19.00;99.90
2577;DHT22;1298;51.252;6.802;2022-08-18T02:26:45;19.00;99.90
2577;DHT22;1298;51.252;6.802;2022-08-18T02:29:32;19.00;99.90
2577;DHT22;1298;51.252;6.802;2022-08-18T02:32:18;18.90;99.90
2577;DHT22;1298;51.252;6.802;2022-08-18T02:35:05;18.80;99.90
2577;DHT22;1298;51.252;6.802;2022-08-18T02:37:50;18.70;99.90
2577;DHT22;1298;51.252;6.802;2022-08-18T02:40:35;18.50;99.90
2577;DHT22;1298;51.252;6.802;2022-08-18T02:43:22;18.30;99.90
2577;DHT22;1298;51.252;6.802;2022-08-18T02:46:09;18.30;99.90
2577;DHT22;1298;51.252;6.802;2022-08-18T02:48:55;18.30;99.90
2577;DHT22;1298;51.252;6.802;2022-08-18T02:51:43;18.20;99.90
2577;DHT22;1298;51.252;6.802;2022-08-18T02:54:29;18.10;99.90
2577;DHT22;1298;51.252;6.802;2022-08-18T02:57:14;18.10;99.90
2577;DHT22;1298;51.252;6.802;2022-08-18T03:00:00;18.00;99.90
2577;DHT22;1298;51.252;6.802;2022-08-18T03:02:48;17.90;99.90
2577;DHT22;1298;51.252;6.802;2022-08-18T03:05:34;18.00;99.90
2577;DHT22;1298;51.252;6.802;2022-08-18T03:08:19;18.00;99.90
2577;DHT22;1298;51.252;6.802;2022-08-18T03:11:05;18.00;99.90
2577;DHT22;1298;51.252;6.802;2022-08-18T03:13:51;18.00;99.90
2577;DHT22;1298;51.252;6.802;2022-08-18T03:16:37;18.10;99.90
2577;DHT22;1298;51.252;6.802;2022-08-18T03:19:26;17.90;99.90
2577;DHT22;1298;51.252;6.802;2022-08-18T03:22:12;17.90;99.90
2577;DHT22;1298;51.252;6.802;2022-08-18T03:24:57;17.80;99.90
2577;DHT22;1298;51.252;6.802;2022-08-18T03:27:43;17.80;99.90
2577;DHT22;1298;51.252;6.802;2022-08-18T03:30:29;17.90;99.90
2577;DHT22;1298;51.252;6.802;2022-08-18T03:33:14;17.90;99.90
2577;DHT22;1298;51.252;6.802;2022-08-18T03:36:04;18.00;99.90
2577;DHT22;1298;51.252;6.802;2022-08-18T03:38:51;18.00;99.90
2577;DHT22;1298;51.252;6.802;2022-08-18T03:41:38;18.00;99.90
2577;DHT22;1298;51.252;6.802;2022-08-18T03:44:25;18.00;99.90
2577;DHT22;1298;51.252;6.802;2022-08-18T03:47:11;17.90;99.90
2577;DHT22;1298;51.252;6.802;2022-08-18T03:49:56;18.00;99.90
2577;DHT22;1298;51.252;6.802;2022-08-18T03:52:44;18.10;99.90
2577;DHT22;1298;51.252;6.802;2022-08-18T03:55:31;18.10;99.90
2577;DHT22;1298;51.252;6.802;2022-08-18T03:58:17;18.10;99.90
2577;DHT22;1298;51.252;6.802;2022-08-18T04:01:02;18.10;99.90
2577;DHT22;1298;51.252;6.802;2022-08-18T04:03:52;18.20;99.90
2577;DHT22;1298;51.252;6.802;2022-08-18T04:06:42;18.20;99.90
2577;DHT22;1298;51.252;6.802;2022-08-18T04:09:31;18.30;99.90
2577;DHT22;1298;51.252;6.802;2022-08-18T04:12:16;18.20;99.90
2577;DHT22;1298;51.252;6.802;2022-08-18T04:15:02;18.40;99.90
2577;DHT22;1298;51.252;6.802;2022-08-18T04:17:47;18.30;99.90
2577;DHT22;1298;51.252;6.802;2022-08-18T04:20:33;18.40;99.90
2577;DHT22;1298;51.252;6.802;2022-08-18T04:23:19;18.30;99.90
2577;DHT22;1298;51.252;6.802;2022-08-18T04:26:08;18.40;99.90
2577;DHT22;1298;51.252;6.802;2022-08-18T04:28:54;18.50;99.90
2577;DHT22;1298;51.252;6.802;2022-08-18T04:31:39;18.60;99.90
2577;DHT22;1298;51.252;6.802;2022-08-18T04:34:25;18.60;99.90
2577;DHT22;1298;51.252;6.802;2022-08-18T04:37:11;18.60;99.90
2577;DHT22;1298;51.252;6.802;2022-08-18T04:39:58;18.70;99.90
2577;DHT22;1298;51.252;6.802;2022-08-18T04:42:45;18.70;99.90
2577;DHT22;1298;51.252;6.802;2022-08-18T04:45:31;18.80;99.90
2577;DHT22;1298;51.252;6.802;2022-08-18T04:48:16;18.90;99.90
2577;DHT22;1298;51.252;6.802;2022-08-18T04:51:04;18.80;99.90
2577;DHT22;1298;51.252;6.802;2022-08-18T04:53:51;18.90;99.90
2577;DHT22;1298;51.252;6.802;2022-08-18T04:56:37;18.80;99.90
2577;DHT22;1298;51.252;6.802;2022-08-18T04:59:24;18.80;99.90
2577;DHT22;1298;51.252;6.802;2022-08-18T05:02:11;18.70;99.90
2577;DHT22;1298;51.252;6.802;2022-08-18T05:04:57;18.70;99.90
2577;DHT22;1298;51.252;6.802;2022-08-18T05:07:45;18.70;99.90
2577;DHT22;1298;51.252;6.802;2022-08-18T05:10:31;18.80;99.90
2577;DHT22;1298;51.252;6.802;2022-08-18T05:13:16;18.90;99.90
2577;DHT22;1298;51.252;6.802;2022-08-18T05:16:04;18.90;99.90
2577;DHT22;1298;51.252;6.802;2022-08-18T05:18:50;18.90;99.90
2577;DHT22;1298;51.252;6.802;2022-08-18T05:21:36;18.90;99.90
2577;DHT22;1298;51.252;6.802;2022-08-18T05:24:25;19.00;99.90
2577;DHT22;1298;51.252;6.802;2022-08-18T05:27:12;18.90;99.90
2577;DHT22;1298;51.252;6.802;2022-08-18T05:29:57;19.00;99.90
2577;DHT22;1298;51.252;6.802;2022-08-18T05:32:45;19.10;99.90
2577;DHT22;1298;51.252;6.802;2022-08-18T05:35:35;19.20;99.90
2577;DHT22;1298;51.252;6.802;2022-08-18T05:38:29;19.20;99.90
2577;DHT22;1298;51.252;6.802;2022-08-18T05:41:22;19.20;99.90
2577;DHT22;1298;51.252;6.802;2022-08-18T05:44:13;19.30;99.90
2577;DHT22;1298;51.252;6.802;2022-08-18T05:47:02;19.20;99.90
2577;DHT22;1298;51.252;6.802;2022-08-18T05:49:52;19.20;99.90
2577;DHT22;1298;51.252;6.802;2022-08-18T05:52:42;19.30;99.90
2577;DHT22;1298;51.252;6.802;2022-08-18T05:55:36;19.10;99.90
2577;DHT22;1298;51.252;6.802;2022-08-18T05:58:44;19.10;99.90
2577;DHT22;1298;51.252;6.802;2022-08-18T06:01:37;19.30;99.90
2577;DHT22;1298;51.252;6.802;2022-08-18T06:04:40;19.30;99.90
2577;DHT22;1298;51.252;6.802;2022-08-18T06:07:33;19.30;99.90
2577;DHT22;1298;51.252;6.802;2022-08-18T06:10:19;19.30;99.90
2577;DHT22;1298;51.252;6.802;2022-08-18T06:13:07;19.30;99.90
2577;DHT22;1298;51.252;6.802;2022-08-18T06:16:03;19.40;99.90
2577;DHT22;1298;51.252;6.802;2022-08-18T06:18:59;19.40;99.90
2577;DHT22;1298;51.252;6.802;2022-08-18T06:21:53;19.30;99.90
2577;DHT22;1298;51.252;6.802;2022-08-18T06:24:47;19.40;99.90
2577;DHT22;1298;51.252;6.802;2022-08-18T06:27:39;19.60;99.90
2577;DHT22;1298;51.252;6.802;2022-08-18T06:30:40;19.60;99.90
2577;DHT22;1298;51.252;6.802;2022-08-18T06:33:39;19.70;99.90
2577;DHT22;1298;51.252;6.802;2022-08-18T06:36:36;19.70;99.90
2577;DHT22;1298;51.252;6.802;2022-08-18T06:39:28;19.70;99.90
2577;DHT22;1298;51.252;6.802;2022-08-18T06:42:19;19.70;99.90
2577;DHT22;1298;51.252;6.802;2022-08-18T06:45:10;19.80;99.90
2577;DHT22;1298;51.252;6.802;2022-08-18T06:48:06;19.80;99.90
2577;DHT22;1298;51.252;6.802;2022-08-18T06:50:57;19.80;99.90
2577;DHT22;1298;51.252;6.802;2022-08-18T06:53:52;19.70;99.90
2577;DHT22;1298;51.252;6.802;2022-08-18T06:56:49;19.70;99.90
2577;DHT22;1298;51.252;6.802;2022-08-18T06:59:36;19.70;99.90
2577;DHT22;1298;51.252;6.802;2022-08-18T07:02:24;19.70;99.90
2577;DHT22;1298;51.252;6.802;2022-08-18T07:05:23;19.90;99.90
2577;DHT22;1298;51.252;6.802;2022-08-18T07:08:12;19.70;99.90
2577;DHT22;1298;51.252;6.802;2022-08-18T07:11:11;19.80;99.90
2577;DHT22;1298;51.252;6.802;2022-08-18T07:14:12;19.70;99.90
2577;DHT22;1298;51.252;6.802;2022-08-18T07:17:12;19.70;99.90
2577;DHT22;1298;51.252;6.802;2022-08-18T07:20:02;19.70;99.90
2577;DHT22;1298;51.252;6.802;2022-08-18T07:22:54;19.80;99.90
2577;DHT22;1298;51.252;6.802;2022-08-18T07:25:43;19.80;99.90
2577;DHT22;1298;51.252;6.802;2022-08-18T07:28:32;19.90;99.90
2577;DHT22;1298;51.252;6.802;2022-08-18T07:31:31;19.70;99.90
2577;DHT22;1298;51.252;6.802;2022-08-18T07:34:23;19.80;99.90
2577;DHT22;1298;51.252;6.802;2022-08-18T07:37:16;19.90;99.90
2577;DHT22;1298;51.252;6.802;2022-08-18T07:40:06;20.00;99.90
2577;DHT22;1298;51.252;6.802;2022-08-18T07:42:58;19.80;99.90
2577;DHT22;1298;51.252;6.802;2022-08-18T07:45:46;19.70;99.90
2577;DHT22;1298;51.252;6.802;2022-08-18T07:48:32;19.60;99.90
2577;DHT22;1298;51.252;6.802;2022-08-18T07:51:27;19.70;99.90
2577;DHT22;1298;51.252;6.802;2022-08-18T07:54:21;19.80;99.90
2577;DHT22;1298;51.252;6.802;2022-08-18T07:57:15;19.90;99.90
2577;DHT22;1298;51.252;6.802;2022-08-18T08:00:06;20.00;99.90
2577;DHT22;1298;51.252;6.802;2022-08-18T08:03:07;20.10;99.90
2577;DHT22;1298;51.252;6.802;2022-08-18T08:05:59;20.20;99.90
2577;DHT22;1298;51.252;6.802;2022-08-18T08:08:55;20.20;99.90
2577;DHT22;1298;51.252;6.802;2022-08-18T08:11:50;20.40;99.90
2577;DHT22;1298;51.252;6.802;2022-08-18T08:14:41;20.50;99.90
2577;DHT22;1298;51.252;6.802;2022-08-18T08:17:32;20.80;99.90
2577;DHT22;1298;51.252;6.802;2022-08-18T08:20:25;20.90;99.90
2577;DHT22;1298;51.252;6.802;2022-08-18T08:23:20;20.90;99.90
2577;DHT22;1298;51.252;6.802;2022-08-18T08:26:22;20.90;99.90
2577;DHT22;1298;51.252;6.802;2022-08-18T08:29:16;21.00;99.90
2577;DHT22;1298;51.252;6.802;2022-08-18T08:32:04;21.10;99.90
2577;DHT22;1298;51.252;6.802;2022-08-18T08:34:52;21.10;99.90
2577;DHT22;1298;51.252;6.802;2022-08-18T08:37:42;21.40;99.90
2577;DHT22;1298;51.252;6.802;2022-08-18T08:40:34;21.50;99.90
2577;DHT22;1298;51.252;6.802;2022-08-18T08:43:28;21.60;99.90
2577;DHT22;1298;51.252;6.802;2022-08-18T08:46:17;21.70;99.90
2577;DHT22;1298;51.252;6.802;2022-08-18T08:49:08;21.70;99.90
2577;DHT22;1298;51.252;6.802;2022-08-18T08:52:00;21.50;99.90
2577;DHT22;1298;51.252;6.802;2022-08-18T08:54:50;21.30;99.90
2577;DHT22;1298;51.252;6.802;2022-08-18T08:57:42;21.40;99.90
2577;DHT22;1298;51.252;6.802;2022-08-18T09:00:31;21.50;99.90
2577;DHT22;1298;51.252;6.802;2022-08-18T09:03:30;21.60;99.90
2577;DHT22;1298;51.252;6.802;2022-08-18T09:06:24;21.90;99.90
2577;DHT22;1298;51.252;6.802;2022-08-18T09:09:41;22.30;99.90
2577;DHT22;1298;51.252;6.802;2022-08-18T09:12:46;22.50;99.90
2577;DHT22;1298;51.252;6.802;2022-08-18T09:15:42;22.40;99.90
2577;DHT22;1298;51.252;6.802;2022-08-18T09:18:49;22.40;99.90
2577;DHT22;1298;51.252;6.802;2022-08-18T09:21:40;22.30;99.90
2577;DHT22;1298;51.252;6.802;2022-08-18T09:24:29;22.40;99.90
2577;DHT22;1298;51.252;6.802;2022-08-18T09:27:30;22.40;99.90
2577;DHT22;1298;51.252;6.802;2022-08-18T09:30:36;22.60;99.90
2577;DHT22;1298;51.252;6.802;2022-08-18T09:33:33;22.60;99.90
2577;DHT22;1298;51.252;6.802;2022-08-18T09:36:43;22.60;99.90
2577;DHT22;1298;51.252;6.802;2022-08-18T09:39:35;22.70;99.90
2577;DHT22;1298;51.252;6.802;2022-08-18T09:42:43;22.80;99.90
2577;DHT22;1298;51.252;6.802;2022-08-18T09:45:52;22.80;99.90
2577;DHT22;1298;51.252;6.802;2022-08-18T09:48:40;22.80;99.90
2577;DHT22;1298;51.252;6.802;2022-08-18T09:51:35;22.70;99.90
2577;DHT22;1298;51.252;6.802;2022-08-18T09:54:22;22.90;99.90
2577;DHT22;1298;51.252;6.802;2022-08-18T09:57:19;23.00;99.90
2577;DHT22;1298;51.252;6.802;2022-08-18T10:00:27;22.90;99.90
2577;DHT22;1298;51.252;6.802;2022-08-18T10:03:22;23.10;99.90
2577;DHT22;1298;51.252;6.802;2022-08-18T10:06:17;23.30;99.90
2577;DHT22;1298;51.252;6.802;2022-08-18T10:09:15;23.30;99.90
2577;DHT22;1298;51.252;6.802;2022-08-18T10:12:16;23.30;99.90
2577;DHT22;1298;51.252;6.802;2022-08-18T10:18:53;23.70;99.90
2577;DHT22;1298;51.252;6.802;2022-08-18T10:22:04;23.70;99.90
2577;DHT22;1298;51.252;6.802;2022-08-18T10:24:53;23.80;99.90
2577;DHT22;1298;51.252;6.802;2022-08-18T10:27:49;23.50;99.90
2577;DHT22;1298;51.252;6.802;2022-08-18T10:31:02;23.70;99.90
2577;DHT22;1298;51.252;6.802;2022-08-18T10:33:59;23.90;99.90
2577;DHT22;1298;51.252;6.802;2022-08-18T10:36:48;24.10;99.90
2577;DHT22;1298;51.252;6.802;2022-08-18T10:39:45;24.20;99.90
2577;DHT22;1298;51.252;6.802;2022-08-18T10:42:34;24.40;99.90
2577;DHT22;1298;51.252;6.802;2022-08-18T10:45:24;24.50;99.90
2577;DHT22;1298;51.252;6.802;2022-08-18T10:48:15;24.70;99.90
2577;DHT22;1298;51.252;6.802;2022-08-18T10:51:10;24.80;99.90
2577;DHT22;1298;51.252;6.802;2022-08-18T10:54:03;24.70;99.90
2577;DHT22;1298;51.252;6.802;2022-08-18T10:56:56;24.40;99.90
2577;DHT22;1298;51.252;6.802;2022-08-18T10:59:51;24.10;99.90
2577;DHT22;1298;51.252;6.802;2022-08-18T11:02:50;24.00;99.90
2577;DHT22;1298;51.252;6.802;2022-08-18T11:05:38;23.60;99.90
2577;DHT22;1298;51.252;6.802;2022-08-18T11:08:23;23.80;99.90
2577;DHT22;1298;51.252;6.802;2022-08-18T11:11:10;23.90;99.90
2577;DHT22;1298;51.252;6.802;2022-08-18T11:14:06;24.30;99.90
2577;DHT22;1298;51.252;6.802;2022-08-18T11:17:01;24.70;99.90
2577;DHT22;1298;51.252;6.802;2022-08-18T11:19:50;24.90;99.90
2577;DHT22;1298;51.252;6.802;2022-08-18T11:22:36;24.80;99.90
2577;DHT22;1298;51.252;6.802;2022-08-18T11:25:25;24.90;99.90
2577;DHT22;1298;51.252;6.802;2022-08-18T11:28:16;24.70;99.90
2577;DHT22;1298;51.252;6.802;2022-08-18T11:31:03;24.80;99.90
2577;DHT22;1298;51.252;6.802;2022-08-18T11:33:50;25.00;99.90
2577;DHT22;1298;51.252;6.802;2022-08-18T11:36:35;24.80;99.90
2577;DHT22;1298;51.252;6.802;2022-08-18T11:39:21;24.60;99.90
2577;DHT22;1298;51.252;6.802;2022-08-18T11:42:07;24.70;99.90
2577;DHT22;1298;51.252;6.802;2022-08-18T11:44:54;25.00;99.90
2577;DHT22;1298;51.252;6.802;2022-08-18T11:48:15;25.00;99.90
2577;DHT22;1298;51.252;6.802;2022-08-18T11:51:09;24.80;99.90
2577;DHT22;1298;51.252;6.802;2022-08-18T11:53:57;24.50;99.90
2577;DHT22;1298;51.252;6.802;2022-08-18T11:56:43;24.70;99.90
2577;DHT22;1298;51.252;6.802;2022-08-18T11:59:31;24.90;99.90
2577;DHT22;1298;51.252;6.802;2022-08-18T12:02:19;25.00;99.90
2577;DHT22;1298;51.252;6.802;2022-08-18T12:05:06;25.00;99.90
2577;DHT22;1298;51.252;6.802;2022-08-18T12:07:52;24.60;99.90
2577;DHT22;1298;51.252;6.802;2022-08-18T12:10:38;24.40;99.90
2577;DHT22;1298;51.252;6.802;2022-08-18T12:13:24;24.30;99.90
2577;DHT22;1298;51.252;6.802;2022-08-18T12:16:13;24.40;99.90
2577;DHT22;1298;51.252;6.802;2022-08-18T12:18:59;24.80;99.90
2577;DHT22;1298;51.252;6.802;2022-08-18T12:21:49;25.20;99.90
2577;DHT22;1298;51.252;6.802;2022-08-18T12:24:35;25.20;99.90
2577;DHT22;1298;51.252;6.802;2022-08-18T12:27:22;25.10;99.90
2577;DHT22;1298;51.252;6.802;2022-08-18T12:30:10;25.20;99.90
2577;DHT22;1298;51.252;6.802;2022-08-18T12:32:55;25.50;99.90
2577;DHT22;1298;51.252;6.802;2022-08-18T12:35:41;25.70;99.90
2577;DHT22;1298;51.252;6.802;2022-08-18T12:38:30;26.00;99.90
2577;DHT22;1298;51.252;6.802;2022-08-18T12:41:16;25.90;99.90
2577;DHT22;1298;51.252;6.802;2022-08-18T12:44:02;25.80;99.90
2577;DHT22;1298;51.252;6.802;2022-08-18T12:46:48;25.90;99.90
2577;DHT22;1298;51.252;6.802;2022-08-18T12:49:33;25.90;99.90
2577;DHT22;1298;51.252;6.802;2022-08-18T12:52:19;25.70;99.90
2577;DHT22;1298;51.252;6.802;2022-08-18T12:55:08;25.80;99.90
2577;DHT22;1298;51.252;6.802;2022-08-18T12:57:53;25.70;99.90
2577;DHT22;1298;51.252;6.802;2022-08-18T13:00:39;25.50;99.90
2577;DHT22;1298;51.252;6.802;2022-08-18T13:03:24;25.40;99.90
2577;DHT22;1298;51.252;6.802;2022-08-18T13:06:10;25.60;99.90
2577;DHT22;1298;51.252;6.802;2022-08-18T13:08:56;25.80;99.90
2577;DHT22;1298;51.252;6.802;2022-08-18T13:11:43;26.10;99.90
2577;DHT22;1298;51.252;6.802;2022-08-18T13:14:29;26.30;99.90
2577;DHT22;1298;51.252;6.802;2022-08-18T13:17:14;26.40;99.90
2577;DHT22;1298;51.252;6.802;2022-08-18T13:20:02;26.70;99.90
2577;DHT22;1298;51.252;6.802;2022-08-18T13:22:49;27.00;99.90
2577;DHT22;1298;51.252;6.802;2022-08-18T13:25:35;27.20;99.90
2577;DHT22;1298;51.252;6.802;2022-08-18T13:28:23;27.70;99.90
2577;DHT22;1298;51.252;6.802;2022-08-18T13:31:08;28.60;99.90
2577;DHT22;1298;51.252;6.802;2022-08-18T13:33:54;29.70;99.90
2577;DHT22;1298;51.252;6.802;2022-08-18T13:36:40;29.80;99.90
2577;DHT22;1298;51.252;6.802;2022-08-18T13:39:28;29.40;99.90
2577;DHT22;1298;51.252;6.802;2022-08-18T13:42:14;28.80;99.90
2577;DHT22;1298;51.252;6.802;2022-08-18T13:45:01;29.40;99.90
2577;DHT22;1298;51.252;6.802;2022-08-18T13:47:48;29.70;99.90
2577;DHT22;1298;51.252;6.802;2022-08-18T13:50:33;30.00;99.90
2577;DHT22;1298;51.252;6.802;2022-08-18T13:53:25;30.50;99.90
2577;DHT22;1298;51.252;6.802;2022-08-18T13:56:10;30.80;99.90
2577;DHT22;1298;51.252;6.802;2022-08-18T13:58:56;31.10;99.90
2577;DHT22;1298;51.252;6.802;2022-08-18T14:01:43;31.20;99.90
2577;DHT22;1298;51.252;6.802;2022-08-18T14:04:29;31.00;99.90
2577;DHT22;1298;51.252;6.802;2022-08-18T14:07:15;30.60;99.90
2577;DHT22;1298;51.252;6.802;2022-08-18T14:10:03;30.50;99.90
2577;DHT22;1298;51.252;6.802;2022-08-18T14:12:51;29.80;99.90
2577;DHT22;1298;51.252;6.802;2022-08-18T14:15:38;28.60;99.90
2577;DHT22;1298;51.252;6.802;2022-08-18T14:18:26;28.70;99.90
2577;DHT22;1298;51.252;6.802;2022-08-18T14:21:12;29.20;99.90
2577;DHT22;1298;51.252;6.802;2022-08-18T14:24:15;29.20;99.90
2577;DHT22;1298;51.252;6.802;2022-08-18T14:27:23;29.70;99.90
2577;DHT22;1298;51.252;6.802;2022-08-18T14:30:11;30.30;99.90
2577;DHT22;1298;51.252;6.802;2022-08-18T14:32:58;29.90;99.90
2577;DHT22;1298;51.252;6.802;2022-08-18T14:35:46;28.90;99.90
2577;DHT22;1298;51.252;6.802;2022-08-18T14:38:32;28.90;99.90
2577;DHT22;1298;51.252;6.802;2022-08-18T14:41:19;29.40;99.90
2577;DHT22;1298;51.252;6.802;2022-08-18T14:44:05;30.20;99.90
2577;DHT22;1298;51.252;6.802;2022-08-18T14:46:52;30.30;99.90
2577;DHT22;1298;51.252;6.802;2022-08-18T14:49:40;30.80;99.90
2577;DHT22;1298;51.252;6.802;2022-08-18T14:52:27;31.10;99.90
2577;DHT22;1298;51.252;6.802;2022-08-18T14:55:13;31.20;99.90
2577;DHT22;1298;51.252;6.802;2022-08-18T14:57:59;31.80;99.90
2577;DHT22;1298;51.252;6.802;2022-08-18T15:00:45;32.70;99.90
2577;DHT22;1298;51.252;6.802;2022-08-18T15:03:31;33.40;99.90
2577;DHT22;1298;51.252;6.802;2022-08-18T15:06:16;33.60;99.90
2577;DHT22;1298;51.252;6.802;2022-08-18T15:09:03;34.00;99.90
2577;DHT22;1298;51.252;6.802;2022-08-18T15:11:48;34.00;99.90
2577;DHT22;1298;51.252;6.802;2022-08-18T15:14:34;33.30;99.90
2577;DHT22;1298;51.252;6.802;2022-08-18T15:17:20;32.60;99.90
2577;DHT22;1298;51.252;6.802;2022-08-18T15:20:07;31.50;99.90
2577;DHT22;1298;51.252;6.802;2022-08-18T15:22:53;30.70;99.90
2577;DHT22;1298;51.252;6.802;2022-08-18T15:26:01;30.30;99.90
2577;DHT22;1298;51.252;6.802;2022-08-18T15:28:47;30.20;99.90
2577;DHT22;1298;51.252;6.802;2022-08-18T15:31:32;29.80;99.90
2577;DHT22;1298;51.252;6.802;2022-08-18T15:34:18;29.70;99.90
2577;DHT22;1298;51.252;6.802;2022-08-18T15:37:04;29.40;99.90
2577;DHT22;1298;51.252;6.802;2022-08-18T15:39:59;29.10;99.90
2577;DHT22;1298;51.252;6.802;2022-08-18T15:42:56;29.00;99.90
2577;DHT22;1298;51.252;6.802;2022-08-18T15:45:45;29.10;99.90
2577;DHT22;1298;51.252;6.802;2022-08-18T15:48:31;28.90;99.90
2577;DHT22;1298;51.252;6.802;2022-08-18T15:51:17;28.90;99.90
2577;DHT22;1298;51.252;6.802;2022-08-18T15:54:03;28.70;99.90
2577;DHT22;1298;51.252;6.802;2022-08-18T15:56:50;28.60;99.90
2577;DHT22;1298;51.252;6.802;2022-08-18T15:59:38;28.70;99.90
2577;DHT22;1298;51.252;6.802;2022-08-18T16:02:23;28.60;99.90
2577;DHT22;1298;51.252;6.802;2022-08-18T16:05:09;28.40;99.90
2577;DHT22;1298;51.252;6.802;2022-08-18T16:07:55;28.10;99.90
2577;DHT22;1298;51.252;6.802;2022-08-18T16:10:42;28.00;99.90
2577;DHT22;1298;51.252;6.802;2022-08-18T16:13:27;28.20;99.90
2577;DHT22;1298;51.252;6.802;2022-08-18T16:16:17;28.50;99.90
2577;DHT22;1298;51.252;6.802;2022-08-18T16:19:04;28.50;99.90
2577;DHT22;1298;51.252;6.802;2022-08-18T16:21:50;28.30;99.90
2577;DHT22;1298;51.252;6.802;2022-08-18T16:24:38;28.50;99.90
2577;DHT22;1298;51.252;6.802;2022-08-18T16:27:24;28.90;99.90
2577;DHT22;1298;51.252;6.802;2022-08-18T16:30:16;29.20;99.90
2577;DHT22;1298;51.252;6.802;2022-08-18T16:33:05;29.20;99.90
2577;DHT22;1298;51.252;6.802;2022-08-18T16:35:50;29.10;99.90
2577;DHT22;1298;51.252;6.802;2022-08-18T16:38:36;29.20;99.90
2577;DHT22;1298;51.252;6.802;2022-08-18T16:41:22;29.40;99.90
2577;DHT22;1298;51.252;6.802;2022-08-18T16:44:07;29.50;99.90
2577;DHT22;1298;51.252;6.802;2022-08-18T16:46:53;29.70;99.90
2577;DHT22;1298;51.252;6.802;2022-08-18T16:49:40;29.60;99.90
2577;DHT22;1298;51.252;6.802;2022-08-18T16:52:26;29.90;99.90
2577;DHT22;1298;51.252;6.802;2022-08-18T16:55:11;29.90;99.90
2577;DHT22;1298;51.252;6.802;2022-08-18T16:57:56;29.70;99.90
2577;DHT22;1298;51.252;6.802;2022-08-18T17:01:01;29.70;99.90
2577;DHT22;1298;51.252;6.802;2022-08-18T17:04:04;29.40;99.90
2577;DHT22;1298;51.252;6.802;2022-08-18T17:06:52;29.10;99.90
2577;DHT22;1298;51.252;6.802;2022-08-18T17:09:38;28.80;99.90
2577;DHT22;1298;51.252;6.802;2022-08-18T17:12:24;28.30;99.90
2577;DHT22;1298;51.252;6.802;2022-08-18T17:15:09;27.80;99.90
2577;DHT22;1298;51.252;6.802;2022-08-18T17:17:55;27.60;99.90
2577;DHT22;1298;51.252;6.802;2022-08-18T17:20:40;27.50;99.90
2577;DHT22;1298;51.252;6.802;2022-08-18T17:23:27;27.30;99.90
2577;DHT22;1298;51.252;6.802;2022-08-18T17:26:21;27.20;99.90
2577;DHT22;1298;51.252;6.802;2022-08-18T17:29:17;27.10;99.90
2577;DHT22;1298;51.252;6.802;2022-08-18T17:32:05;27.00;99.90
2577;DHT22;1298;51.252;6.802;2022-08-18T17:34:56;27.10;99.90
2577;DHT22;1298;51.252;6.802;2022-08-18T17:37:46;27.10;99.90
2577;DHT22;1298;51.252;6.802;2022-08-18T17:40:41;27.30;99.90
2577;DHT22;1298;51.252;6.802;2022-08-18T17:43:29;27.30;99.90
2577;DHT22;1298;51.252;6.802;2022-08-18T17:46:17;27.20;99.90
2577;DHT22;1298;51.252;6.802;2022-08-18T17:49:15;27.30;99.90
2577;DHT22;1298;51.252;6.802;2022-08-18T17:52:02;27.60;99.90
2577;DHT22;1298;51.252;6.802;2022-08-18T17:54:50;28.10;99.90
2577;DHT22;1298;51.252;6.802;2022-08-18T17:57:44;28.50;99.90
2577;DHT22;1298;51.252;6.802;2022-08-18T18:00:35;28.90;99.90
2577;DHT22;1298;51.252;6.802;2022-08-18T18:03:20;29.20;99.90
2577;DHT22;1298;51.252;6.802;2022-08-18T18:06:09;29.20;99.90
2577;DHT22;1298;51.252;6.802;2022-08-18T18:08:57;29.10;99.90
2577;DHT22;1298;51.252;6.802;2022-08-18T18:11:43;28.80;99.90
2577;DHT22;1298;51.252;6.802;2022-08-18T18:14:35;28.40;99.90
2577;DHT22;1298;51.252;6.802;2022-08-18T18:17:26;28.10;99.90
2577;DHT22;1298;51.252;6.802;2022-08-18T18:20:15;27.80;99.90
2577;DHT22;1298;51.252;6.802;2022-08-18T18:23:14;27.60;99.90
2577;DHT22;1298;51.252;6.802;2022-08-18T18:26:20;27.60;99.90
2577;DHT22;1298;51.252;6.802;2022-08-18T18:29:14;27.60;99.90
2577;DHT22;1298;51.252;6.802;2022-08-18T18:32:06;27.40;99.90